This is the latest recevied weather packets stored in our database for station/object KC8ZBC. If no packets are shown the sender has not sent any weather packets the latest 1 day(s).
| Time | Temp. | Humidity | Pressure | Rain* | Wind** | Luminosity | Snow |
|---|---|---|---|---|---|---|---|
| 1778077382 | 7.78° C | 63% | 987.3 hPa | 0 mm | - | 593 W/m² | - |
| 1778077080 | 7.78° C | 63% | 987.4 hPa | 0 mm | - | 568 W/m² | - |
| 1778076778 | 7.78° C | 64% | 987.3 hPa | 0 mm | - | 509 W/m² | - |
| 1778076172 | 6.11° C | 66% | 987.2 hPa | 0 mm | - | 483 W/m² | - |
| 1778075869 | 6.67° C | 66% | 987.4 hPa | 0 mm | - | 511 W/m² | - |
| 1778075565 | 6.11° C | 66% | 987.2 hPa | 0 mm | - | 465 W/m² | - |
| 1778075262 | 6.11° C | 66% | 987.2 hPa | 0 mm | - | 481 W/m² | - |
| 1778074656 | 6.11° C | 67% | 987.2 hPa | 0 mm | - | 475 W/m² | - |
| 1778073140 | 6.11° C | 67% | 987 hPa | 0 mm | - | 254 W/m² | - |
| 1778072837 | 6.11° C | 66% | 986.9 hPa | 0 mm | - | 269 W/m² | - |
| 1778072534 | 5.56° C | 67% | 986.9 hPa | 0 mm | - | 243 W/m² | - |
| 1778072232 | 6.11° C | 68% | 986.6 hPa | 0 mm | - | 225 W/m² | - |
| 1778070721 | 5.56° C | 70% | 986.4 hPa | 0 mm | - | 164 W/m² | - |
| 1778069813 | 5° C | 75% | 986.5 hPa | 0 mm | - | 34 W/m² | - |
| 1778069207 | 5° C | 76% | 985.9 hPa | 0 mm | - | 23 W/m² | - |
| 1778068904 | 5.56° C | 75% | 986 hPa | 0 mm | - | 34 W/m² | - |
| 1778067997 | 4.44° C | 77% | 985.6 hPa | 0 mm | - | 43 W/m² | - |
| 1778067695 | 4.44° C | 77% | 985.5 hPa | 0 mm | - | 24 W/m² | - |
| 1778067090 | 5° C | 77% | 985.6 hPa | 0 mm | - | 24 W/m² | - |
| 1778066484 | 4.44° C | 78% | 985.3 hPa | 0 mm | - | 21 W/m² | - |
| 1778065879 | 4.44° C | 78% | 985.1 hPa | 0 mm | - | 12 W/m² | - |
| 1778065576 | 4.44° C | 77% | 985 hPa | 0 mm | - | 10 W/m² | - |
| 1778065274 | 5° C | 75% | 985.1 hPa | 0 mm | - | 10 W/m² | - |
| 1778064970 | 5° C | 75% | 984.8 hPa | 0 mm | - | 11 W/m² | - |
| 1778064667 | 4.44° C | 74% | 984.9 hPa | 0 mm | - | 11 W/m² | - |
* Rain latest hour (hover to see other rain measurements)
** Current wind speed in m/s (hover to see current wind gust speed)